Time,TemperatureF,DewpointF,PressureIn,WindDirection,WindDirectionDegrees,WindSpeedMPH,WindSpeedGustMPH,Humidity,HourlyPrecipIn,Conditions,Clouds,dailyrainin,SolarRadiationWatts/m^2,SoftwareType,DateUTC
2013-01-05 00:00:00,31.3,25.5,29.62,East,86,0.0,0.0,79,0.00,CLR,,0.01,0.0,WeatherDisplay:10.37,2013-01-05 05:00:00,
2013-01-05 00:01:00,31.3,25.5,29.62,East,86,1.1,0.0,79,0.00,RA,,0.00,0.0,WeatherDisplay:10.37,2013-01-05 05:01:00,
2013-01-05 00:06:00,31.1,25.0,29.62,East,86,1.1,1.1,78,0.00,RA,,0.00,0.0,WeatherDisplay:10.37,2013-01-05 05:06:00,
2013-01-05 00:11:00,31.0,24.9,29.62,East,86,0.0,0.0,78,0.00,CLR,,0.00,0.0,WeatherDisplay:10.37,2013-01-05 05:11:00,
2013-01-05 00:16:00,30.8,25.1,29.62,East,86,1.1,0.0,79,0.00,CLR,,0.00,0.0,WeatherDisplay:10.37,2013-01-05 05:16:00,
2013-01-05 00:21:00,30.6,24.9,29.62,East,86,2.3,2.3,79,0.00,CLR,,0.00,0.0,WeatherDisplay:10.37,2013-01-05 05:21:00,
2013-01-05 00:26:00,30.4,25.0,29.62,South,188,0.0,0.0,80,0.00,CLR,,0.00,0.0,WeatherDisplay:10.37,2013-01-05 05:26:00,
2013-01-05 00:31:00,30.3,25.2,29.62,East,95,4.0,4.0,81,0.00,CLR,,0.00,0.0,WeatherDisplay:10.37,2013-01-05 05:31:00,
2013-01-05 00:36:00,30.3,25.2,29.62,East,89,6.0,6.0,81,0.00,CLR,,0.00,0.0,WeatherDisplay:10.37,2013-01-05 05:36:00,
2013-01-05 00:41:00,31.0,23.7,29.62,WNW,287,4.6,4.6,74,0.00,CLR,,0.00,0.0,WeatherDisplay:10.37,2013-01-05 05:41:00,
2013-01-05 00:46:00,31.9,23.2,29.62,WSW,254,3.5,3.5,70,0.00,CLR,,0.00,0.0,WeatherDisplay:10.37,2013-01-05 05:46:00,
2013-01-05 00:51:00,32.7,22.9,29.61,NNE,15,1.1,0.0,67,0.00,CLR,,0.00,0.0,WeatherDisplay:10.37,2013-01-05 05:51:00,
2013-01-05 00:56:00,33.1,22.6,29.61,WSW,252,3.5,3.5,65,0.00,CLR,,0.00,0.0,WeatherDisplay:10.37,2013-01-05 05:56:00,
2013-01-05 01:01:00,33.3,22.8,29.61,WNW,288,2.3,2.3,65,0.00,CLR,,0.00,0.0,WeatherDisplay:10.37,2013-01-05 06:01:00,
2013-01-05 01:06:00,33.6,22.7,29.62,WSW,248,3.0,3.0,64,0.00,CLR,,0.00,0.0,WeatherDisplay:10.37,2013-01-05 06:06:00,
2013-01-05 01:11:00,33.9,22.6,29.62,West,273,4.0,4.0,63,0.00,CLR,,0.00,0.0,WeatherDisplay:10.37,2013-01-05 06:11:00,
2013-01-05 01:16:00,34.2,22.5,29.62,WSW,257,9.0,9.0,62,0.00,CLR,,0.00,0.0,WeatherDisplay:10.37,2013-01-05 06:16:00,
2013-01-05 01:21:00,34.4,22.7,29.62,SE,144,5.8,5.8,62,0.00,CLR,,0.00,0.0,WeatherDisplay:10.37,2013-01-05 06:21:00,
2013-01-05 01:26:00,34.4,22.7,29.62,WNW,288,2.3,2.3,62,0.00,CLR,,0.00,0.0,WeatherDisplay:10.37,2013-01-05 06:26:00,
2013-01-05 01:31:00,34.5,22.4,29.62,West,281,3.5,3.5,61,0.00,CLR,,0.00,0.0,WeatherDisplay:10.37,2013-01-05 06:31:00,
2013-01-05 01:36:00,34.6,22.5,29.63,WSW,256,2.3,2.5,61,0.00,CLR,,0.00,0.0,WeatherDisplay:10.37,2013-01-05 06:36:00,
2013-01-05 01:41:00,34.5,22.4,29.63,WSW,257,3.5,3.5,61,0.00,CLR,,0.00,0.0,WeatherDisplay:10.37,2013-01-05 06:41:00,
2013-01-05 01:46:00,34.5,22.4,29.63,WSW,257,0.0,0.0,61,0.00,CLR,,0.00,0.0,WeatherDisplay:10.37,2013-01-05 06:46:00,
2013-01-05 01:51:00,34.5,22.4,29.64,WSW,257,1.1,1.1,61,0.00,CLR,,0.00,0.0,WeatherDisplay:10.37,2013-01-05 06:51:00,
2013-01-05 01:56:00,34.4,22.7,29.64,WSW,257,0.0,0.0,62,0.00,CLR,,0.00,0.0,WeatherDisplay:10.37,2013-01-05 06:56:00,
2013-01-05 02:01:00,34.4,23.5,29.64,WSW,257,2.0,2.0,64,0.00,CLR,,0.00,0.0,WeatherDisplay:10.37,2013-01-05 07:01:00,
2013-01-05 02:06:00,34.4,23.1,29.64,WSW,257,2.3,2.3,63,0.00,CLR,,0.00,0.0,WeatherDisplay:10.37,2013-01-05 07:06:00,
2013-01-05 02:11:00,34.4,23.1,29.64,WSW,257,1.1,1.1,63,0.00,CLR,,0.00,0.0,WeatherDisplay:10.37,2013-01-05 07:11:00,
2013-01-05 02:16:00,34.2,22.9,29.64,WSW,257,2.3,2.3,63,0.00,CLR,,0.00,0.0,WeatherDisplay:10.37,2013-01-05 07:16:00,
2013-01-05 02:21:00,34.1,23.6,29.64,WSW,257,2.0,2.0,65,0.00,CLR,,0.00,0.0,WeatherDisplay:10.37,2013-01-05 07:21:00,
2013-01-05 02:27:00,33.9,23.4,29.64,WSW,257,2.3,2.3,65,0.00,CLR,,0.00,0.0,WeatherDisplay:10.37,2013-01-05 07:27:00,
2013-01-05 02:32:00,33.7,23.5,29.64,WSW,257,3.5,3.5,66,0.00,CLR,,0.00,0.0,WeatherDisplay:10.37,2013-01-05 07:32:00,
2013-01-05 02:37:00,33.5,23.0,29.65,WNW,286,4.6,4.6,65,0.00,CLR,,0.00,0.0,WeatherDisplay:10.37,2013-01-05 07:37:00,
2013-01-05 02:42:00,33.5,22.2,29.65,WNW,288,8.1,8.1,63,0.00,CLR,,0.00,0.0,WeatherDisplay:10.37,2013-01-05 07:42:00,
2013-01-05 02:47:00,33.8,22.1,29.65,West,263,5.8,5.8,62,0.00,CLR,,0.00,0.0,WeatherDisplay:10.37,2013-01-05 07:47:00,
2013-01-05 02:52:00,34.3,22.2,29.65,WNW,283,9.2,9.2,61,0.00,CLR,,0.00,0.0,WeatherDisplay:10.37,2013-01-05 07:52:00,
2013-01-05 02:57:00,34.4,22.3,29.65,West,261,4.6,4.6,61,0.00,CLR,,0.00,0.0,WeatherDisplay:10.37,2013-01-05 07:57:00,
2013-01-05 03:02:00,34.8,22.3,29.65,WNW,298,6.9,6.9,60,0.00,CLR,,0.00,0.0,WeatherDisplay:10.37,2013-01-05 08:02:00,
2013-01-05 03:07:00,35.0,22.1,29.65,WNW,299,10.0,10.0,59,0.00,CLR,,0.00,0.0,WeatherDisplay:10.37,2013-01-05 08:07:00,
2013-01-05 03:12:00,35.2,22.7,29.65,West,280,2.3,2.3,60,0.00,CLR,,0.00,0.0,WeatherDisplay:10.37,2013-01-05 08:12:00,
2013-01-05 03:17:00,35.2,22.3,29.65,West,267,1.1,1.1,59,0.00,CLR,,0.00,0.0,WeatherDisplay:10.37,2013-01-05 08:17:00,
2013-01-05 03:22:00,35.1,22.6,29.66,West,277,10.4,10.4,60,0.00,CLR,,0.00,0.0,WeatherDisplay:10.37,2013-01-05 08:22:00,
2013-01-05 03:27:00,35.1,23.0,29.66,WNW,296,3.5,3.5,61,0.00,CLR,,0.00,0.0,WeatherDisplay:10.37,2013-01-05 08:27:00,
2013-01-05 03:32:00,35.2,23.1,29.66,West,259,6.0,6.0,61,0.00,CLR,,0.00,0.0,WeatherDisplay:10.37,2013-01-05 08:32:00,
2013-01-05 03:37:00,35.2,23.1,29.66,West,277,3.5,3.5,61,0.00,CLR,,0.00,0.0,WeatherDisplay:10.37,2013-01-05 08:37:00,
2013-01-05 03:42:00,35.1,23.4,29.66,WNW,282,4.6,4.6,62,0.00,CLR,,0.00,0.0,WeatherDisplay:10.37,2013-01-05 08:42:00,
2013-01-05 03:47:00,35.1,23.4,29.66,WNW,298,3.5,3.5,62,0.00,CLR,,0.00,0.0,WeatherDisplay:10.37,2013-01-05 08:47:00,
2013-01-05 03:52:00,35.0,23.3,29.67,West,281,5.8,5.8,62,0.00,CLR,,0.00,0.0,WeatherDisplay:10.37,2013-01-05 08:52:00,
2013-01-05 03:57:00,35.2,23.5,29.67,WSW,248,4.6,4.6,62,0.00,CLR,,0.00,0.0,WeatherDisplay:10.37,2013-01-05 08:57:00,
2013-01-05 04:02:00,35.3,23.6,29.67,WNW,295,10.4,10.4,62,0.00,CLR,,0.00,0.0,WeatherDisplay:10.37,2013-01-05 09:02:00,
2013-01-05 04:07:00,35.4,24.0,29.67,WNW,303,11.5,11.5,63,0.00,CLR,,0.00,0.0,WeatherDisplay:10.37,2013-01-05 09:07:00,
2013-01-05 04:12:00,35.5,24.1,29.67,NW,310,9.2,9.2,63,0.00,CLR,,0.00,0.0,WeatherDisplay:10.37,2013-01-05 09:12:00,
2013-01-05 04:17:00,35.5,24.1,29.67,SSW,192,4.6,4.6,63,0.00,CLR,,0.00,0.0,WeatherDisplay:10.37,2013-01-05 09:17:00,
2013-01-05 04:22:00,35.5,24.1,29.67,WSW,256,10.4,10.4,63,0.00,CLR,,0.00,0.0,WeatherDisplay:10.37,2013-01-05 09:22:00,
2013-01-05 04:27:00,35.4,24.0,29.67,West,261,4.6,4.6,63,0.00,CLR,,0.00,0.0,WeatherDisplay:10.37,2013-01-05 09:27:00,
2013-01-05 04:32:00,35.4,24.4,29.67,West,262,11.5,11.5,64,0.00,CLR,,0.00,0.0,WeatherDisplay:10.37,2013-01-05 09:32:00,
2013-01-05 04:37:00,35.3,24.3,29.67,WNW,284,3.5,3.5,64,0.00,CLR,,0.00,0.0,WeatherDisplay:10.37,2013-01-05 09:37:00,
2013-01-05 04:42:00,35.2,24.2,29.67,WSW,240,12.7,12.7,64,0.00,CLR,,0.00,0.0,WeatherDisplay:10.37,2013-01-05 09:42:00,
2013-01-05 04:47:00,35.1,24.1,29.67,WNW,290,11.5,11.5,64,0.00,CLR,,0.00,0.0,WeatherDisplay:10.37,2013-01-05 09:47:00,
2013-01-05 04:52:00,35.1,24.1,29.68,South,186,6.9,6.9,64,0.00,CLR,,0.00,0.0,WeatherDisplay:10.37,2013-01-05 09:52:00,
2013-01-05 04:57:00,35.0,24.4,29.68,WSW,252,9.2,9.2,65,0.00,CLR,,0.00,0.0,WeatherDisplay:10.37,2013-01-05 09:57:00,
2013-01-05 05:02:00,34.9,24.3,29.68,WNW,286,9.2,9.2,65,0.00,CLR,,0.00,0.0,WeatherDisplay:10.37,2013-01-05 10:02:00,
2013-01-05 05:07:00,34.8,24.2,29.68,WNW,290,9.2,9.2,65,0.00,CLR,,0.00,0.0,WeatherDisplay:10.37,2013-01-05 10:07:00,
2013-01-05 05:12:00,34.8,23.9,29.68,West,263,3.5,3.5,64,0.00,CLR,,0.00,0.0,WeatherDisplay:10.37,2013-01-05 10:12:00,
2013-01-05 05:17:00,34.8,23.9,29.68,WNW,282,4.6,4.6,64,0.00,CLR,,0.00,0.0,WeatherDisplay:10.37,2013-01-05 10:17:00,
2013-01-05 05:22:00,34.8,24.2,29.70,WNW,291,6.0,6.0,65,0.00,CLR,,0.00,0.0,WeatherDisplay:10.37,2013-01-05 10:22:00,
2013-01-05 05:27:00,34.7,24.1,29.70,WNW,287,4.6,4.6,65,0.00,CLR,,0.00,0.0,WeatherDisplay:10.37,2013-01-05 10:27:00,
2013-01-05 05:32:00,34.7,23.8,29.70,WNW,290,11.5,11.5,64,0.00,CLR,,0.00,0.0,WeatherDisplay:10.37,2013-01-05 10:32:00,
2013-01-05 05:37:00,34.7,23.8,29.71,SW,230,10.0,10.0,64,0.00,CLR,,0.00,0.0,WeatherDisplay:10.37,2013-01-05 10:37:00,
2013-01-05 05:42:00,34.7,23.4,29.71,NW,309,12.7,12.7,63,0.00,CLR,,0.00,0.0,WeatherDisplay:10.37,2013-01-05 10:42:00,
2013-01-05 05:47:00,34.7,23.0,29.71,West,278,2.3,2.3,62,0.00,CLR,,0.00,0.0,WeatherDisplay:10.37,2013-01-05 10:47:00,
2013-01-05 05:52:00,34.7,22.2,29.73,NW,311,3.5,3.5,60,0.00,CLR,,0.00,0.0,WeatherDisplay:10.37,2013-01-05 10:52:00,
2013-01-05 05:57:00,34.6,22.1,29.73,WNW,288,6.9,6.9,60,0.00,CLR,,0.00,0.0,WeatherDisplay:10.37,2013-01-05 10:57:00,
2013-01-05 06:02:00,34.7,21.4,29.73,WNW,296,11.0,11.0,58,0.00,CLR,,0.00,0.0,WeatherDisplay:10.37,2013-01-05 11:02:00,
2013-01-05 06:07:00,34.9,21.2,29.74,WNW,294,15.0,15.0,57,0.00,CLR,,0.00,0.0,WeatherDisplay:10.37,2013-01-05 11:07:00,
2013-01-05 06:12:00,35.3,20.7,29.74,NW,319,11.5,11.5,55,0.00,CLR,,0.00,0.0,WeatherDisplay:10.37,2013-01-05 11:12:00,
2013-01-05 06:17:00,35.5,20.9,29.74,WNW,293,11.5,11.5,55,0.00,CLR,,0.00,0.0,WeatherDisplay:10.37,2013-01-05 11:17:00,
2013-01-05 06:22:00,35.4,20.8,29.75,South,175,3.5,3.5,55,0.00,CLR,,0.00,0.0,WeatherDisplay:10.37,2013-01-05 11:22:00,
2013-01-05 06:27:00,35.3,20.7,29.75,West,271,9.2,9.2,55,0.00,CLR,,0.00,0.0,WeatherDisplay:10.37,2013-01-05 11:27:00,
2013-01-05 06:32:00,35.5,20.0,29.75,WSW,254,10.4,10.4,53,0.00,CLR,,0.00,0.0,WeatherDisplay:10.37,2013-01-05 11:32:00,
2013-01-05 06:37:00,35.5,20.5,29.76,West,278,7.0,7.0,54,0.00,CLR,,0.00,0.0,WeatherDisplay:10.37,2013-01-05 11:37:00,
2013-01-05 06:42:00,35.4,20.8,29.76,West,277,2.0,2.0,55,0.00,CLR,,0.00,0.0,WeatherDisplay:10.37,2013-01-05 11:42:00,
2013-01-05 06:47:00,35.3,20.7,29.76,West,259,11.5,11.5,55,0.00,CLR,,0.00,0.0,WeatherDisplay:10.37,2013-01-05 11:47:00,
2013-01-05 06:52:00,35.3,20.7,29.78,West,261,15.0,15.0,55,0.00,CLR,,0.00,0.0,WeatherDisplay:10.37,2013-01-05 11:52:00,
2013-01-05 06:57:00,35.3,20.7,29.78,WNW,291,3.5,3.5,55,0.00,CLR,,0.00,0.0,WeatherDisplay:10.37,2013-01-05 11:57:00,
2013-01-05 07:02:00,35.2,20.6,29.78,West,266,4.0,5.0,55,0.00,CLR,,0.00,0.0,WeatherDisplay:10.37,2013-01-05 12:02:00,
2013-01-05 07:07:00,35.2,19.8,29.80,WSW,250,17.3,17.3,53,0.00,CLR,,0.00,0.0,WeatherDisplay:10.37,2013-01-05 12:07:00,
2013-01-05 07:12:00,35.0,19.6,29.80,WNW,290,10.0,10.0,53,0.00,CLR,,0.00,5.0,WeatherDisplay:10.37,2013-01-05 12:12:00,
2013-01-05 07:17:00,34.8,18.0,29.80,WNW,283,14.0,14.0,50,0.00,CLR,,0.00,5.0,WeatherDisplay:10.37,2013-01-05 12:17:00,
2013-01-05 07:22:00,34.5,17.3,29.82,WNW,302,11.5,11.5,49,0.00,CLR,,0.00,9.0,WeatherDisplay:10.37,2013-01-05 12:22:00,
2013-01-05 07:27:00,34.2,17.9,29.82,WNW,284,11.5,11.5,51,0.00,SCT,,0.00,12.0,WeatherDisplay:10.37,2013-01-05 12:27:00,
2013-01-05 07:32:00,33.7,17.9,29.82,NW,315,15.0,15.0,52,0.00,SCT,,0.00,12.0,WeatherDisplay:10.37,2013-01-05 12:32:00,
2013-01-05 07:37:00,33.4,18.1,29.84,WNW,292,9.2,9.2,53,0.00,BKN,,0.00,16.0,WeatherDisplay:10.37,2013-01-05 12:37:00,
2013-01-05 07:42:00,32.9,17.6,29.84,WNW,298,11.5,11.5,53,0.00,SCT,,0.00,19.0,WeatherDisplay:10.37,2013-01-05 12:42:00,
2013-01-05 07:47:00,32.8,17.5,29.84,WNW,286,8.1,8.1,53,0.00,BKN,,0.00,18.0,WeatherDisplay:10.37,2013-01-05 12:47:00,
2013-01-05 07:52:00,32.6,17.8,29.85,WNW,302,10.0,10.0,54,0.00,BKN,,0.00,18.0,WeatherDisplay:10.37,2013-01-05 12:52:00,
2013-01-05 07:57:00,32.4,17.2,29.85,WNW,286,12.7,12.7,53,0.00,BKN,,0.00,19.0,WeatherDisplay:10.37,2013-01-05 12:57:00,
2013-01-05 08:02:00,32.4,17.6,29.85,WNW,294,4.6,5.1,54,0.00,BKN,,0.00,23.0,WeatherDisplay:10.37,2013-01-05 13:02:00,
2013-01-05 08:07:00,32.4,17.2,29.86,West,265,12.7,12.7,53,0.00,BKN,,0.00,25.0,WeatherDisplay:10.37,2013-01-05 13:07:00,
2013-01-05 08:12:00,32.4,16.7,29.86,West,261,10.4,10.4,52,0.00,BKN,,0.00,25.0,WeatherDisplay:10.37,2013-01-05 13:12:00,
2013-01-05 08:17:00,32.4,17.2,29.86,West,268,10.0,10.0,53,0.00,BKN,,0.00,26.0,WeatherDisplay:10.37,2013-01-05 13:17:00,
2013-01-05 08:22:00,32.4,17.2,29.88,WNW,288,11.5,11.5,53,0.00,BKN,,0.00,47.0,WeatherDisplay:10.37,2013-01-05 13:22:00,
2013-01-05 08:27:00,32.3,17.5,29.88,West,279,10.0,10.0,54,0.00,BKN,,0.00,70.0,WeatherDisplay:10.37,2013-01-05 13:27:00,
2013-01-05 08:32:00,32.1,18.2,29.88,WNW,297,13.0,13.0,56,0.00,SCT,,0.00,67.0,WeatherDisplay:10.37,2013-01-05 13:32:00,
2013-01-05 08:37:00,31.9,18.4,29.88,WNW,288,9.2,9.2,57,0.00,BKN,,0.00,37.0,WeatherDisplay:10.37,2013-01-05 13:37:00,
2013-01-05 08:42:00,31.8,18.3,29.88,WNW,292,13.8,13.8,57,0.00,SCT,,0.00,63.0,WeatherDisplay:10.37,2013-01-05 13:42:00,
2013-01-05 08:47:00,31.8,18.7,29.88,West,277,10.0,10.9,58,0.00,FEW,,0.00,121.0,WeatherDisplay:10.37,2013-01-05 13:47:00,
2013-01-05 08:53:00,31.9,18.8,29.89,West,279,11.5,11.5,58,0.00,BKN,,0.00,46.0,WeatherDisplay:10.37,2013-01-05 13:53:00,
2013-01-05 08:58:00,32.0,18.5,29.89,WNW,291,11.5,11.5,57,0.00,BKN,,0.00,39.0,WeatherDisplay:10.37,2013-01-05 13:58:00,
2013-01-05 09:03:00,32.1,19.0,29.89,WSW,253,10.4,10.4,58,0.00,SCT,,0.00,160.0,WeatherDisplay:10.37,2013-01-05 14:03:00,
2013-01-05 09:08:00,32.1,19.0,29.90,West,280,16.1,16.1,58,0.00,CLR,,0.00,213.0,WeatherDisplay:10.37,2013-01-05 14:08:00,
2013-01-05 09:13:00,32.5,18.5,29.90,WNW,292,15.0,15.0,56,0.00,CLR,,0.00,220.0,WeatherDisplay:10.37,2013-01-05 14:13:00,
2013-01-05 09:18:00,32.6,18.6,29.90,WNW,296,9.2,9.2,56,0.00,CLR,,0.00,230.0,WeatherDisplay:10.37,2013-01-05 14:18:00,
2013-01-05 09:23:00,32.9,18.5,29.92,WNW,294,16.1,16.1,55,0.00,CLR,,0.00,239.0,WeatherDisplay:10.37,2013-01-05 14:23:00,
2013-01-05 09:28:00,33.2,17.0,29.92,WSW,252,13.8,13.8,51,0.00,CLR,,0.00,248.0,WeatherDisplay:10.37,2013-01-05 14:28:00,
2013-01-05 09:33:00,33.2,17.9,29.92,WNW,283,15.0,15.0,53,0.00,CLR,,0.00,257.0,WeatherDisplay:10.37,2013-01-05 14:33:00,
2013-01-05 09:38:00,33.2,17.5,29.92,WNW,300,14.0,14.0,52,0.00,CLR,,0.00,265.0,WeatherDisplay:10.37,2013-01-05 14:38:00,
2013-01-05 09:43:00,33.4,17.2,29.92,West,265,15.0,15.0,51,0.00,CLR,,0.00,274.0,WeatherDisplay:10.37,2013-01-05 14:43:00,
2013-01-05 09:48:00,33.8,16.6,29.92,WNW,291,17.3,17.3,49,0.00,CLR,,0.00,281.0,WeatherDisplay:10.37,2013-01-05 14:48:00,
2013-01-05 09:53:00,33.9,16.3,29.93,WNW,290,17.3,17.3,48,0.00,CLR,,0.00,290.0,WeatherDisplay:10.37,2013-01-05 14:53:00,
2013-01-05 09:58:00,33.8,16.2,29.93,WNW,284,16.1,16.1,48,0.00,CLR,,0.00,297.0,WeatherDisplay:10.37,2013-01-05 14:58:00,
2013-01-05 10:03:00,34.0,15.9,29.93,WNW,291,17.3,17.3,47,0.00,CLR,,0.00,304.0,WeatherDisplay:10.37,2013-01-05 15:03:00,
2013-01-05 10:08:00,33.6,16.5,29.94,West,261,15.0,15.0,49,0.00,CLR,,0.00,311.0,WeatherDisplay:10.37,2013-01-05 15:08:00,
2013-01-05 10:13:00,33.4,17.2,29.94,WNW,287,19.6,19.6,51,0.00,CLR,,0.00,320.0,WeatherDisplay:10.37,2013-01-05 15:13:00,
2013-01-05 10:18:00,33.1,17.4,29.94,WNW,295,17.3,17.3,52,0.00,CLR,,0.00,323.0,WeatherDisplay:10.37,2013-01-05 15:18:00,
2013-01-05 10:23:00,33.0,18.1,29.95,West,281,23.0,23.0,54,0.00,CLR,,0.00,329.0,WeatherDisplay:10.37,2013-01-05 15:23:00,
2013-01-05 10:28:00,32.6,18.2,29.95,West,277,18.4,18.4,55,0.00,CLR,,0.00,336.0,WeatherDisplay:10.37,2013-01-05 15:28:00,
2013-01-05 10:33:00,32.3,18.3,29.95,WNW,291,20.7,20.7,56,0.00,CLR,,0.00,341.0,WeatherDisplay:10.37,2013-01-05 15:33:00,
2013-01-05 10:38:00,32.2,18.7,29.96,WNW,286,23.0,23.0,57,0.00,CLR,,0.00,343.0,WeatherDisplay:10.37,2013-01-05 15:38:00,
2013-01-05 10:43:00,32.0,18.5,29.96,West,271,21.9,21.9,57,0.00,CLR,,0.00,352.0,WeatherDisplay:10.37,2013-01-05 15:43:00,
2013-01-05 10:48:00,31.8,17.9,29.96,WNW,292,18.4,18.4,56,0.00,CLR,,0.00,338.0,WeatherDisplay:10.37,2013-01-05 15:48:00,
2013-01-05 10:53:00,31.7,16.9,29.96,NW,310,18.4,18.4,54,0.00,CLR,,0.00,320.0,WeatherDisplay:10.37,2013-01-05 15:53:00,
2013-01-05 10:58:00,31.7,16.1,29.96,West,275,21.9,21.9,52,0.00,CLR,,0.00,345.0,WeatherDisplay:10.37,2013-01-05 15:58:00,
2013-01-05 11:03:00,31.6,15.1,29.96,WNW,286,21.9,21.9,50,0.00,CLR,,0.00,343.0,WeatherDisplay:10.37,2013-01-05 16:03:00,
2013-01-05 11:08:00,31.7,15.2,29.98,NW,318,18.4,18.4,50,0.00,CLR,,0.00,339.0,WeatherDisplay:10.37,2013-01-05 16:08:00,
2013-01-05 11:13:00,31.7,14.7,29.98,West,263,15.0,15.0,49,0.00,CLR,,0.00,290.0,WeatherDisplay:10.37,2013-01-05 16:13:00,
2013-01-05 11:18:00,31.8,14.3,29.98,WSW,249,16.1,16.1,48,0.00,CLR,,0.00,297.0,WeatherDisplay:10.37,2013-01-05 16:18:00,
2013-01-05 11:23:00,31.6,14.6,29.99,WNW,293,15.0,15.0,49,0.00,SCT,,0.00,185.0,WeatherDisplay:10.37,2013-01-05 16:23:00,
2013-01-05 11:28:00,31.9,13.9,29.99,NW,308,11.5,11.5,47,0.00,SCT,,0.00,285.0,WeatherDisplay:10.37,2013-01-05 16:28:00,
2013-01-05 11:33:00,32.0,13.5,29.99,West,281,17.3,17.3,46,0.00,SCT,,0.00,230.0,WeatherDisplay:10.37,2013-01-05 16:33:00,
2013-01-05 11:38:00,31.7,13.3,30.00,West,273,9.0,9.0,46,0.00,SCT,,0.00,204.0,WeatherDisplay:10.37,2013-01-05 16:38:00,
2013-01-05 11:43:00,31.5,13.1,30.00,WNW,302,19.6,19.6,46,0.00,SCT,,0.00,213.0,WeatherDisplay:10.37,2013-01-05 16:43:00,
2013-01-05 11:48:00,31.0,12.6,30.00,West,275,15.0,15.0,46,0.00,BKN,,0.00,118.0,WeatherDisplay:10.37,2013-01-05 16:48:00,
2013-01-05 11:53:00,31.0,13.1,29.99,WNW,290,24.2,24.2,47,0.00,BKN,,0.00,113.0,WeatherDisplay:10.37,2013-01-05 16:53:00,
2013-01-05 11:58:00,31.0,13.1,29.99,West,277,20.7,20.7,47,0.00,SCT,,0.00,204.0,WeatherDisplay:10.37,2013-01-05 16:58:00,
2013-01-05 12:03:00,31.2,13.3,29.99,WNW,292,10.4,10.4,47,0.00,BKN,,0.00,74.0,WeatherDisplay:10.37,2013-01-05 17:03:00,
2013-01-05 12:08:00,31.2,12.8,29.99,WNW,287,16.1,16.1,46,0.00,BKN,,0.00,42.0,WeatherDisplay:10.37,2013-01-05 17:08:00,
2013-01-05 12:13:00,31.3,12.4,29.99,West,272,15.0,15.0,45,0.00,BKN,,0.00,35.0,WeatherDisplay:10.37,2013-01-05 17:13:00,
2013-01-05 12:18:00,31.3,12.9,29.99,West,269,19.6,19.6,46,0.00,BKN,,0.00,37.0,WeatherDisplay:10.37,2013-01-05 17:18:00,
2013-01-05 12:23:00,31.2,12.8,30.00,WNW,284,11.5,11.5,46,0.00,BKN,,0.00,39.0,WeatherDisplay:10.37,2013-01-05 17:23:00,
2013-01-05 12:28:00,31.2,12.8,30.00,WNW,292,11.5,11.5,46,0.00,BKN,,0.00,44.0,WeatherDisplay:10.37,2013-01-05 17:28:00,
2013-01-05 12:33:00,31.3,13.4,30.00,NW,304,4.6,4.6,47,0.00,BKN,,0.00,74.0,WeatherDisplay:10.37,2013-01-05 17:33:00,
2013-01-05 12:38:00,31.4,13.0,30.01,WNW,294,11.5,11.5,46,0.00,BKN,,0.00,42.0,WeatherDisplay:10.37,2013-01-05 17:38:00,
2013-01-05 12:43:00,31.4,13.9,30.01,West,279,15.0,15.0,48,0.00,BKN,,0.00,53.0,WeatherDisplay:10.37,2013-01-05 17:43:00,
2013-01-05 12:48:00,31.5,13.1,30.01,WNW,284,3.5,3.5,46,0.00,BKN,,0.00,56.0,WeatherDisplay:10.37,2013-01-05 17:48:00,
2013-01-05 12:53:00,31.7,13.3,30.02,West,281,2.0,2.0,46,0.00,BKN,,0.00,79.0,WeatherDisplay:10.37,2013-01-05 17:53:00,
2013-01-05 12:58:00,31.7,13.3,30.02,ENE,61,6.9,6.9,46,0.00,BKN,,0.00,90.0,WeatherDisplay:10.37,2013-01-05 17:58:00,
2013-01-05 13:03:00,31.9,14.9,30.02,ESE,117,4.6,4.6,49,0.00,SCT,,0.00,160.0,WeatherDisplay:10.37,2013-01-05 18:03:00,
2013-01-05 13:08:00,31.7,14.2,30.03,NE,44,1.1,1.1,48,0.00,BKN,,0.00,102.0,WeatherDisplay:10.37,2013-01-05 18:08:00,
2013-01-05 13:13:00,31.6,14.6,30.03,WNW,294,2.3,2.3,49,0.00,BKN,,0.00,58.0,WeatherDisplay:10.37,2013-01-05 18:13:00,
2013-01-05 13:18:00,31.5,14.0,30.03,WSW,252,3.5,3.5,48,0.00,BKN,,0.00,97.0,WeatherDisplay:10.37,2013-01-05 18:18:00,
2013-01-05 13:23:00,31.5,14.5,30.03,WNW,283,3.5,3.5,49,0.00,BKN,,0.00,35.0,WeatherDisplay:10.37,2013-01-05 18:23:00,
2013-01-05 13:28:00,31.4,13.9,30.03,WNW,296,3.5,3.5,48,0.00,BKN,,0.00,39.0,WeatherDisplay:10.37,2013-01-05 18:28:00,
2013-01-05 13:33:00,31.5,14.0,30.03,West,280,1.1,1.1,48,0.00,BKN,,0.00,33.0,WeatherDisplay:10.37,2013-01-05 18:33:00,
2013-01-05 13:38:00,31.4,14.4,30.03,WNW,295,3.0,3.0,49,0.00,BKN,,0.00,37.0,WeatherDisplay:10.37,2013-01-05 18:38:00,
2013-01-05 13:43:00,31.4,14.9,30.03,WNW,297,6.9,6.9,50,0.00,BKN,,0.00,83.0,WeatherDisplay:10.37,2013-01-05 18:43:00,
2013-01-05 13:48:00,31.2,13.8,30.03,WNW,289,2.3,2.3,48,0.00,BKN,,0.00,32.0,WeatherDisplay:10.37,2013-01-05 18:48:00,
2013-01-05 13:53:00,31.0,14.5,30.03,NW,306,10.4,10.4,50,0.00,BKN,,0.00,63.0,WeatherDisplay:10.37,2013-01-05 18:53:00,
2013-01-05 13:58:00,30.9,14.0,30.03,NW,307,5.8,5.8,49,0.00,BKN,,0.00,42.0,WeatherDisplay:10.37,2013-01-05 18:58:00,
2013-01-05 14:03:00,31.0,14.0,30.03,NW,311,7.0,7.0,49,0.00,BKN,,0.00,69.0,WeatherDisplay:10.37,2013-01-05 19:03:00,
2013-01-05 14:08:00,31.0,13.6,30.04,WNW,294,5.8,5.8,48,0.00,BKN,,0.00,46.0,WeatherDisplay:10.37,2013-01-05 19:08:00,
2013-01-05 14:13:00,30.8,14.8,30.04,WNW,294,3.5,3.7,51,0.00,BKN,,0.00,42.0,WeatherDisplay:10.37,2013-01-05 19:13:00,
2013-01-05 14:18:00,30.9,13.0,30.04,WNW,294,1.1,1.1,47,0.00,BKN,,0.00,30.0,WeatherDisplay:10.37,2013-01-05 19:18:00,
2013-01-05 14:23:00,30.7,13.3,30.04,West,265,4.0,4.0,48,0.00,BKN,,0.00,28.0,WeatherDisplay:10.37,2013-01-05 19:23:00,
2013-01-05 14:28:00,30.4,14.4,30.04,West,265,2.3,2.3,51,0.00,BKN,,0.00,28.0,WeatherDisplay:10.37,2013-01-05 19:28:00,
2013-01-05 14:33:00,30.9,13.0,30.04,SW,232,0.0,0.0,47,0.00,BKN,,0.00,26.0,WeatherDisplay:10.37,2013-01-05 19:33:00,
2013-01-05 14:38:00,30.8,13.4,30.05,SW,232,1.1,1.1,48,0.00,BKN,,0.00,26.0,WeatherDisplay:10.37,2013-01-05 19:38:00,
2013-01-05 14:43:00,30.5,14.0,30.05,WNW,283,4.6,4.6,50,0.00,BKN,,0.00,26.0,WeatherDisplay:10.37,2013-01-05 19:43:00,
2013-01-05 14:48:00,30.5,13.6,30.05,WNW,303,1.1,1.1,49,0.00,BKN,,0.00,26.0,WeatherDisplay:10.37,2013-01-05 19:48:00,
2013-01-05 14:53:00,30.3,13.9,30.06,WNW,303,0.0,0.0,50,0.00,BKN,,0.00,25.0,WeatherDisplay:10.37,2013-01-05 19:53:00,
2013-01-05 14:58:00,30.3,13.4,30.06,WNW,303,1.0,1.0,49,0.00,BKN,,0.00,25.0,WeatherDisplay:10.37,2013-01-05 19:58:00,
2013-01-05 15:03:00,30.1,13.7,30.06,NW,304,1.1,0.0,50,0.00,BKN,,0.00,23.0,WeatherDisplay:10.37,2013-01-05 20:03:00,
2013-01-05 15:08:00,30.2,14.2,30.06,NW,304,1.1,1.1,51,0.00,BKN,,0.00,23.0,WeatherDisplay:10.37,2013-01-05 20:08:00,
2013-01-05 15:13:00,30.1,14.1,30.06,WNW,303,2.3,2.3,51,0.00,BKN,,0.00,23.0,WeatherDisplay:10.37,2013-01-05 20:13:00,
2013-01-05 15:18:00,29.9,13.5,30.06,NW,304,1.1,1.1,50,0.00,BKN,,0.00,21.0,WeatherDisplay:10.37,2013-01-05 20:18:00,
2013-01-05 15:23:00,29.7,14.2,30.07,WNW,303,2.3,2.3,52,0.00,BKN,,0.00,19.0,WeatherDisplay:10.37,2013-01-05 20:23:00,
2013-01-05 15:28:00,29.5,13.6,30.07,WNW,303,2.3,2.3,51,0.00,BKN,,0.00,19.0,WeatherDisplay:10.37,2013-01-05 20:28:00,
2013-01-05 15:33:00,29.4,13.0,30.07,NW,304,3.5,3.5,50,0.00,BKN,,0.00,18.0,WeatherDisplay:10.37,2013-01-05 20:33:00,
2013-01-05 15:38:00,29.4,13.0,30.07,NW,304,3.5,3.5,50,0.00,BKN,,0.00,18.0,WeatherDisplay:10.37,2013-01-05 20:38:00,
2013-01-05 15:43:00,29.1,13.6,30.07,NW,304,4.6,4.6,52,0.00,BKN,,0.00,16.0,WeatherDisplay:10.37,2013-01-05 20:43:00,
2013-01-05 15:48:00,28.5,13.5,30.07,NW,304,2.3,2.3,53,0.00,BKN,,0.00,12.0,WeatherDisplay:10.37,2013-01-05 20:48:00,
2013-01-05 15:53:00,28.3,13.3,30.07,WNW,303,3.5,3.5,53,0.00,BKN,,0.00,12.0,WeatherDisplay:10.37,2013-01-05 20:53:00,
2013-01-05 15:58:00,28.3,12.9,30.07,NW,304,3.5,3.5,52,0.00,BKN,,0.00,11.0,WeatherDisplay:10.37,2013-01-05 20:58:00,
2013-01-05 16:04:00,28.2,13.7,30.07,WNW,303,0.0,0.0,54,0.00,BKN,,0.00,9.0,WeatherDisplay:10.37,2013-01-05 21:04:00,
2013-01-05 16:09:00,27.8,14.9,30.08,WNW,303,1.1,0.0,58,0.00,BKN,,0.00,7.0,WeatherDisplay:10.37,2013-01-05 21:09:00,
2013-01-05 16:14:00,27.6,12.2,30.08,NW,304,1.1,1.1,52,0.00,FEW,,0.00,7.0,WeatherDisplay:10.37,2013-01-05 21:14:00,
2013-01-05 16:19:00,27.5,11.7,30.08,NW,304,0.0,0.0,51,0.00,CLR,,0.00,5.0,WeatherDisplay:10.37,2013-01-05 21:19:00,
2013-01-05 16:24:00,27.0,13.4,30.08,NW,304,0.0,0.0,56,0.00,CLR,,0.00,5.0,WeatherDisplay:10.37,2013-01-05 21:24:00,
2013-01-05 16:29:00,26.5,13.3,30.08,WNW,303,0.0,0.0,57,0.00,CLR,,0.00,0.0,WeatherDisplay:10.37,2013-01-05 21:29:00,
2013-01-05 16:34:00,26.2,13.8,30.08,NW,304,0.0,0.0,59,0.00,CLR,,0.00,0.0,WeatherDisplay:10.37,2013-01-05 21:34:00,
2013-01-05 16:39:00,25.8,13.8,30.09,WNW,303,0.0,0.0,60,0.00,CLR,,0.00,0.0,WeatherDisplay:10.37,2013-01-05 21:39:00,
2013-01-05 16:44:00,25.4,13.1,30.09,NW,304,0.0,0.0,59,0.00,CLR,,0.00,0.0,WeatherDisplay:10.37,2013-01-05 21:44:00,
2013-01-05 16:49:00,25.2,13.6,30.09,NW,304,0.0,0.0,61,0.00,CLR,,0.00,0.0,WeatherDisplay:10.37,2013-01-05 21:49:00,
2013-01-05 16:54:00,25.0,13.4,30.09,WNW,303,0.0,0.0,61,0.00,CLR,,0.00,0.0,WeatherDisplay:10.37,2013-01-05 21:54:00,
2013-01-05 16:59:00,24.3,15.3,30.09,NW,304,0.0,0.0,68,0.00,CLR,,0.00,0.0,WeatherDisplay:10.37,2013-01-05 21:59:00,
2013-01-05 17:04:00,24.1,13.3,30.09,WNW,303,0.0,0.0,63,0.00,CLR,,0.00,0.0,WeatherDisplay:10.37,2013-01-05 22:04:00,
2013-01-05 17:09:00,23.9,13.5,30.10,NW,304,0.0,0.0,64,0.00,CLR,,0.00,0.0,WeatherDisplay:10.37,2013-01-05 22:09:00,
2013-01-05 17:14:00,23.8,13.7,30.10,NW,304,0.0,0.0,65,0.00,CLR,,0.00,0.0,WeatherDisplay:10.37,2013-01-05 22:14:00,
2013-01-05 17:19:00,23.6,13.5,30.10,WNW,303,0.0,0.0,65,0.00,CLR,,0.00,0.0,WeatherDisplay:10.37,2013-01-05 22:19:00,
2013-01-05 17:24:00,23.2,12.8,30.10,NW,304,0.0,0.0,64,0.00,CLR,,0.00,0.0,WeatherDisplay:10.37,2013-01-05 22:24:00,
2013-01-05 17:29:00,22.8,12.1,30.10,WNW,303,0.0,0.0,63,0.00,CLR,,0.00,0.0,WeatherDisplay:10.37,2013-01-05 22:29:00,
2013-01-05 17:34:00,22.6,12.2,30.10,WNW,303,0.0,0.0,64,0.00,CLR,,0.00,0.0,WeatherDisplay:10.37,2013-01-05 22:34:00,
2013-01-05 17:39:00,22.5,12.1,30.11,NW,304,0.0,0.0,64,0.00,CLR,,0.00,0.0,WeatherDisplay:10.37,2013-01-05 22:39:00,
2013-01-05 17:44:00,22.1,12.5,30.11,NW,304,0.0,0.0,66,0.00,CLR,,0.00,0.0,WeatherDisplay:10.37,2013-01-05 22:44:00,
2013-01-05 17:49:00,21.8,11.8,30.11,NW,304,0.0,0.0,65,0.00,CLR,,0.00,0.0,WeatherDisplay:10.37,2013-01-05 22:49:00,
2013-01-05 17:54:00,21.7,12.1,30.11,NW,304,0.0,0.0,66,0.00,CLR,,0.00,0.0,WeatherDisplay:10.37,2013-01-05 22:54:00,
2013-01-05 17:59:00,21.5,12.9,30.11,NW,304,0.0,0.0,69,0.00,CLR,,0.00,0.0,WeatherDisplay:10.37,2013-01-05 22:59:00,
2013-01-05 18:04:00,21.1,12.5,30.11,WNW,303,0.0,0.0,69,0.00,CLR,,0.00,0.0,WeatherDisplay:10.37,2013-01-05 23:04:00,
2013-01-05 18:09:00,20.8,12.6,30.12,NW,304,0.0,0.0,70,0.00,CLR,,0.00,0.0,WeatherDisplay:10.37,2013-01-05 23:09:00,
2013-01-05 18:14:00,20.3,13.0,30.12,NW,304,0.0,0.0,73,0.00,CLR,,0.00,0.0,WeatherDisplay:10.37,2013-01-05 23:14:00,
2013-01-05 18:19:00,19.9,13.3,30.12,NW,304,0.0,0.0,75,0.00,CLR,,0.00,0.0,WeatherDisplay:10.37,2013-01-05 23:19:00,
2013-01-05 18:24:00,19.8,13.5,30.13,NW,304,0.0,0.0,76,0.00,CLR,,0.00,0.0,WeatherDisplay:10.37,2013-01-05 23:24:00,
2013-01-05 18:29:00,19.7,13.4,30.13,NW,304,0.0,0.0,76,0.00,CLR,,0.00,0.0,WeatherDisplay:10.37,2013-01-05 23:29:00,
2013-01-05 18:34:00,19.7,13.1,30.13,WNW,303,0.0,0.0,75,0.00,CLR,,0.00,0.0,WeatherDisplay:10.37,2013-01-05 23:34:00,
2013-01-05 18:39:00,19.7,13.1,30.13,NW,304,0.0,0.0,75,0.00,CLR,,0.00,0.0,WeatherDisplay:10.37,2013-01-05 23:39:00,
2013-01-05 18:44:00,19.7,13.1,30.13,NW,304,0.0,0.0,75,0.00,CLR,,0.00,0.0,WeatherDisplay:10.37,2013-01-05 23:44:00,
2013-01-05 18:49:00,19.5,13.2,30.13,WNW,303,0.0,0.0,76,0.00,CLR,,0.00,0.0,WeatherDisplay:10.37,2013-01-05 23:49:00,
2013-01-05 18:54:00,19.2,13.2,30.13,NW,304,0.0,0.0,77,0.00,CLR,,0.00,0.0,WeatherDisplay:10.37,2013-01-05 23:54:00,
2013-01-05 18:59:00,19.0,13.3,30.13,NW,304,0.0,0.0,78,0.00,CLR,,0.00,0.0,WeatherDisplay:10.37,2013-01-05 23:59:00,
2013-01-05 19:04:00,18.9,12.9,30.13,WNW,303,0.0,0.0,77,0.00,CLR,,0.00,0.0,WeatherDisplay:10.37,2013-01-06 00:04:00,
2013-01-05 19:09:00,18.8,12.5,30.14,NW,304,0.0,0.0,76,0.00,CLR,,0.00,0.0,WeatherDisplay:10.37,2013-01-06 00:09:00,
2013-01-05 19:14:00,18.8,12.8,30.14,NW,304,0.0,0.0,77,0.00,CLR,,0.00,0.0,WeatherDisplay:10.37,2013-01-06 00:14:00,
2013-01-05 19:19:00,18.8,13.1,30.14,WNW,303,0.0,0.0,78,0.00,CLR,,0.00,0.0,WeatherDisplay:10.37,2013-01-06 00:19:00,
2013-01-05 19:24:00,18.6,12.6,30.15,NW,304,0.0,0.0,77,0.00,CLR,,0.00,0.0,WeatherDisplay:10.37,2013-01-06 00:24:00,
2013-01-05 19:29:00,18.5,12.8,30.15,NW,304,0.0,0.0,78,0.00,CLR,,0.00,0.0,WeatherDisplay:10.37,2013-01-06 00:29:00,
2013-01-05 19:34:00,18.4,13.0,30.15,WNW,303,0.0,0.0,79,0.00,CLR,,0.00,0.0,WeatherDisplay:10.37,2013-01-06 00:34:00,
2013-01-05 19:39:00,18.2,12.8,30.15,NW,304,0.0,0.0,79,0.00,CLR,,0.00,0.0,WeatherDisplay:10.37,2013-01-06 00:39:00,
2013-01-05 19:44:00,18.4,13.3,30.15,NW,304,0.0,0.0,80,0.00,CLR,,0.00,0.0,WeatherDisplay:10.37,2013-01-06 00:44:00,
2013-01-05 19:49:00,18.1,13.0,30.15,WNW,303,0.0,0.0,80,0.00,CLR,,0.00,0.0,WeatherDisplay:10.37,2013-01-06 00:49:00,
2013-01-05 19:54:00,18.0,12.9,30.15,NW,304,0.0,0.0,80,0.00,CLR,,0.00,0.0,WeatherDisplay:10.37,2013-01-06 00:54:00,
2013-01-05 19:59:00,17.7,12.6,30.15,NW,304,0.0,0.0,80,0.00,CLR,,0.00,0.0,WeatherDisplay:10.37,2013-01-06 00:59:00,
2013-01-05 20:04:00,17.5,12.4,30.15,WNW,303,0.0,0.0,80,0.00,CLR,,0.00,0.0,WeatherDisplay:10.37,2013-01-06 01:04:00,
2013-01-05 20:09:00,17.2,12.4,30.14,NW,304,0.0,0.0,81,0.00,CLR,,0.00,0.0,WeatherDisplay:10.37,2013-01-06 01:09:00,
2013-01-05 20:14:00,16.9,12.1,30.14,NW,304,0.0,0.0,81,0.00,CLR,,0.00,0.0,WeatherDisplay:10.37,2013-01-06 01:14:00,
2013-01-05 20:19:00,16.8,12.3,30.14,WNW,303,0.0,0.0,82,0.00,CLR,,0.00,0.0,WeatherDisplay:10.37,2013-01-06 01:19:00,
2013-01-05 20:24:00,16.6,12.1,30.14,WNW,303,0.0,0.0,82,0.00,CLR,,0.00,0.0,WeatherDisplay:10.37,2013-01-06 01:24:00,
2013-01-05 20:29:00,16.2,11.7,30.14,NW,304,0.0,0.0,82,0.00,CLR,,0.00,0.0,WeatherDisplay:10.37,2013-01-06 01:29:00,
2013-01-05 20:34:00,16.1,11.8,30.14,WNW,303,1.0,1.0,83,0.00,CLR,,0.00,0.0,WeatherDisplay:10.37,2013-01-06 01:34:00,
2013-01-05 20:39:00,16.0,11.7,30.15,WNW,303,0.0,0.0,83,0.00,CLR,,0.00,0.0,WeatherDisplay:10.37,2013-01-06 01:39:00,
2013-01-05 20:44:00,15.9,11.7,30.15,NW,304,0.0,0.0,83,0.00,CLR,,0.00,0.0,WeatherDisplay:10.37,2013-01-06 01:44:00,
2013-01-05 20:49:00,15.9,11.9,30.15,WNW,303,0.0,0.0,84,0.00,CLR,,0.00,0.0,WeatherDisplay:10.37,2013-01-06 01:49:00,
2013-01-05 20:54:00,15.8,11.8,30.15,NW,304,0.0,0.0,84,0.00,CLR,,0.00,0.0,WeatherDisplay:10.37,2013-01-06 01:54:00,
2013-01-05 20:59:00,15.6,11.6,30.15,NW,304,0.0,0.0,84,0.00,CLR,,0.00,0.0,WeatherDisplay:10.37,2013-01-06 01:59:00,
2013-01-05 21:04:00,15.4,11.4,30.15,WNW,303,0.0,0.0,84,0.00,CLR,,0.00,0.0,WeatherDisplay:10.37,2013-01-06 02:04:00,
2013-01-05 21:09:00,15.3,11.6,30.15,NW,304,0.0,0.0,85,0.00,CLR,,0.00,0.0,WeatherDisplay:10.37,2013-01-06 02:09:00,
2013-01-05 21:14:00,15.0,11.3,30.15,NW,304,0.0,0.0,85,0.00,CLR,,0.00,0.0,WeatherDisplay:10.37,2013-01-06 02:14:00,
2013-01-05 21:19:00,15.0,11.3,30.15,WNW,303,0.0,0.0,85,0.00,CLR,,0.00,0.0,WeatherDisplay:10.37,2013-01-06 02:19:00,
2013-01-05 21:24:00,14.9,11.2,30.15,NW,304,1.1,1.1,85,0.00,CLR,,0.00,0.0,WeatherDisplay:10.37,2013-01-06 02:24:00,
2013-01-05 21:29:00,14.9,11.2,30.15,NW,304,2.3,2.3,85,0.00,CLR,,0.00,0.0,WeatherDisplay:10.37,2013-01-06 02:29:00,
2013-01-05 21:34:00,14.8,11.1,30.15,WNW,303,1.1,0.0,85,0.00,CLR,,0.00,0.0,WeatherDisplay:10.37,2013-01-06 02:34:00,
2013-01-05 21:39:00,14.7,11.0,30.15,NW,304,0.0,0.0,85,0.00,CLR,,0.00,0.0,WeatherDisplay:10.37,2013-01-06 02:39:00,
2013-01-05 21:44:00,14.5,10.8,30.15,NW,304,0.0,0.0,85,0.00,CLR,,0.00,0.0,WeatherDisplay:10.37,2013-01-06 02:44:00,
2013-01-05 21:49:00,14.4,10.7,30.15,NW,304,0.0,0.1,85,0.00,CLR,,0.00,0.0,WeatherDisplay:10.37,2013-01-06 02:49:00,
2013-01-05 21:54:00,14.5,10.8,30.15,NW,304,1.1,1.1,85,0.00,CLR,,0.00,0.0,WeatherDisplay:10.37,2013-01-06 02:54:00,
2013-01-05 21:59:00,14.5,10.8,30.15,NW,304,1.1,0.0,85,0.00,CLR,,0.00,0.0,WeatherDisplay:10.37,2013-01-06 02:59:00,
2013-01-05 22:04:00,14.3,10.4,30.15,WNW,303,0.0,0.0,84,0.00,CLR,,0.00,0.0,WeatherDisplay:10.37,2013-01-06 03:04:00,
2013-01-05 22:09:00,14.1,10.4,30.15,NW,304,0.0,0.0,85,0.00,CLR,,0.00,0.0,WeatherDisplay:10.37,2013-01-06 03:09:00,
2013-01-05 22:14:00,14.0,10.3,30.15,NW,304,0.0,0.0,85,0.00,CLR,,0.00,0.0,WeatherDisplay:10.37,2013-01-06 03:14:00,
2013-01-05 22:19:00,13.9,10.2,30.15,WNW,303,0.0,0.0,85,0.00,CLR,,0.00,0.0,WeatherDisplay:10.37,2013-01-06 03:19:00,
2013-01-05 22:24:00,13.7,10.0,30.15,NW,304,0.0,0.0,85,0.00,CLR,,0.00,0.0,WeatherDisplay:10.37,2013-01-06 03:24:00,
2013-01-05 22:29:00,13.7,10.0,30.15,WNW,303,0.0,0.0,85,0.00,CLR,,0.00,0.0,WeatherDisplay:10.37,2013-01-06 03:29:00,
2013-01-05 22:34:00,13.9,10.5,30.15,WNW,303,0.0,0.0,86,0.00,CLR,,0.00,0.0,WeatherDisplay:10.37,2013-01-06 03:34:00,
2013-01-05 22:39:00,14.1,10.7,30.16,WNW,303,0.0,0.0,86,0.00,CLR,,0.00,0.0,WeatherDisplay:10.37,2013-01-06 03:39:00,
2013-01-05 22:44:00,14.1,10.7,30.16,NW,304,1.1,1.1,86,0.00,CLR,,0.00,0.0,WeatherDisplay:10.37,2013-01-06 03:44:00,
2013-01-05 22:49:00,14.3,10.9,30.16,WNW,303,1.1,1.1,86,0.00,CLR,,0.00,0.0,WeatherDisplay:10.37,2013-01-06 03:49:00,
2013-01-05 22:55:00,14.4,11.0,30.15,NW,304,1.1,1.1,86,0.00,CLR,,0.00,0.0,WeatherDisplay:10.37,2013-01-06 03:55:00,
2013-01-05 23:00:00,14.4,11.0,30.15,NW,304,1.1,1.1,86,0.00,CLR,,0.00,0.0,WeatherDisplay:10.37,2013-01-06 04:00:00,
2013-01-05 23:04:00,14.4,11.0,30.15,NW,304,0.0,2.0,86,0.00,CLR,,0.00,0.0,WeatherDisplay:10.37,2013-01-06 04:04:00,
2013-01-05 23:10:00,14.4,10.7,30.14,NW,304,1.0,1.0,85,0.00,CLR,,0.00,0.0,WeatherDisplay:10.37,2013-01-06 04:10:00,
2013-01-05 23:15:00,14.4,10.7,30.14,NW,304,0.0,2.0,85,0.00,CLR,,0.00,0.0,WeatherDisplay:10.37,2013-01-06 04:15:00,
2013-01-05 23:20:00,14.4,10.7,30.14,NW,304,0.0,0.0,85,0.00,CLR,,0.00,0.0,WeatherDisplay:10.37,2013-01-06 04:20:00,
2013-01-05 23:25:00,14.6,11.2,30.14,NW,304,1.1,0.0,86,0.00,CLR,,0.00,0.0,WeatherDisplay:10.37,2013-01-06 04:25:00,
2013-01-05 23:30:00,14.6,10.9,30.14,WNW,303,0.0,0.0,85,0.00,CLR,,0.00,0.0,WeatherDisplay:10.37,2013-01-06 04:30:00,
2013-01-05 23:35:00,14.6,10.9,30.14,NW,304,0.0,0.0,85,0.00,CLR,,0.00,0.0,WeatherDisplay:10.37,2013-01-06 04:35:00,
2013-01-05 23:40:00,14.5,10.8,30.14,NW,304,0.0,1.0,85,0.00,CLR,,0.00,0.0,WeatherDisplay:10.37,2013-01-06 04:40:00,
2013-01-05 23:44:00,14.6,10.9,30.14,WNW,303,0.0,0.0,85,0.00,CLR,,0.00,0.0,WeatherDisplay:10.37,2013-01-06 04:44:00,
2013-01-05 23:49:00,14.5,10.8,30.14,WNW,303,0.0,0.0,85,0.00,CLR,,0.00,0.0,WeatherDisplay:10.37,2013-01-06 04:49:00,
2013-01-05 23:55:00,14.4,11.0,30.13,NW,304,1.0,2.0,86,0.00,CLR,,0.00,0.0,WeatherDisplay:10.37,2013-01-06 04:55:00,